ADDS METAR Data INFO
IDs: Format: Raw Decoded Include TAF

Data at: 2112 UTC 22 Oct 2017

KHKY 222053Z 20004KT 10SM FEW055 23/12 A3026 RMK AO2 SLP231 T02280122 56015 $
KHKY 221953Z 19003KT 10SM SCT050 23/13 A3027 RMK AO2 SLP234 T02280128 $
KHKY 221853Z VRB04KT 10SM SCT041 BKN050 23/13 A3027 RMK AO2 SLP234 T02280133 $
KHKY 221753Z 18005KT 10SM FEW036 22/13 A3030 RMK AO2 SLP245 T02220133 10228 20100 58022 $
KHKY 221653Z VRB03KT 10SM SCT028 SCT038 21/14 A3035 RMK AO2 SLP260 T02110139 $
KHKY 221553Z VRB04KT 10SM CLR 21/15 A3035 RMK AO2 SLP262 T02060150 $
KHKY 221453Z 00000KT 10SM CLR 18/13 A3037 RMK AO2 SLP269 T01830133 50009 $
KHKY 221407Z 01003KT 10SM SCT010 15/12 A3037 RMK AO2 T01500122 $
KHKY 221353Z 00000KT 10SM BKN010 15/12 A3037 RMK AO2 SLP271 T01500122 $
KHKY 221345Z 00000KT 10SM BKN011 15/12 A3037 RMK AO2 T01500122 $
KHKY 221253Z 00000KT 10SM CLR 12/12 A3036 RMK AO2 SLP266 T01220117 $
KHKY 221153Z 00000KT 5SM BR CLR 10/10 A3034 RMK AO2 SLP262 T01000100 10133 20100 51007 $
KHKY 221148Z 00000KT 5SM BR CLR 10/10 A3034 RMK AO2 $
KHKY 221141Z 00000KT 1 1/2SM BR CLR 11/10 A3035 RMK AO2 T01060100 $
KHKY 221053Z 00000KT 7SM CLR 10/10 A3033 RMK AO2 SLP258 T01000100 $
KHKY 220953Z AUTO 36003KT 6SM BR CLR 11/11 A3032 RMK AO2 SLP253 T01110106 $
KHKY 220853Z AUTO 00000KT 10SM CLR 12/11 A3033 RMK AO2 SLP253 T01170111 $
KHKY 220753Z AUTO 00000KT 10SM CLR 12/11 A3032 RMK AO2 SLP250 T01220111
KHKY 220653Z AUTO 00000KT 10SM CLR 12/12 A3033 RMK AO2 SLP254 T01220117
KHKY 220553Z AUTO 00000KT 10SM CLR 13/12 A3033 RMK AO2 SLP253 T01280122 10189 20128 56004
KHKY 220453Z AUTO 00000KT 10SM CLR 13/13 A3033 RMK AO2 SLP254 T01330128 402500094
KHKY 220353Z AUTO 00000KT 10SM CLR 13/13 A3033 RMK AO2 SLP256 T01330128
KHKY 220253Z AUTO 00000KT 10SM CLR 14/13 A3034 RMK AO2 SLP259 T01440133 53003
KHKY 220153Z AUTO 02003KT 10SM CLR 16/13 A3034 RMK AO2 SLP259 T01560133
KHKY 220053Z AUTO 00000KT 10SM CLR 16/13 A3033 RMK AO2 SLP258 T01610133
KHKY 212353Z 00000KT 10SM CLR 19/10 A3033 RMK AO2 SLP256 T01890100 10250 20183 52008
KHKY 212253Z 00000KT 10SM CLR 19/11 A3032 RMK AO2 SLP255 T01940111
KHKY 212153Z 00000KT 10SM CLR 22/11 A3031 RMK AO2 SLP248 T02170111
KHKY 212053Z 00000KT 10SM CLR 23/10 A3030 RMK AO2 SLP246 T02330100 56006
KHKY 211953Z VRB03KT 10SM CLR 23/10 A3030 RMK AO2 SLP246 T02330100
KHKY 211853Z 00000KT 10SM CLR 24/09 A3031 RMK AO2 SLP246 T02440089
KHKY 211753Z 00000KT 10SM CLR 24/09 A3032 RMK AO2 SLP251 T02390089 10239 20094 58012
KHKY 211653Z 00000KT 10SM CLR 22/10 A3034 RMK AO2 SLP259 T02170100
KHKY 211553Z 00000KT 10SM CLR 19/11 A3035 RMK AO2 SLP262 T01940106
KHKY 211453Z 29003KT 10SM CLR 16/11 A3036 RMK AO2 SLP267 T01610106 51012
KHKY 211353Z 30003KT 10SM CLR 13/10 A3036 RMK AO2 SLP267 T01330100
KHKY 211253Z 31004KT 10SM CLR 11/09 A3034 RMK AO2 SLP263 T01060094
KHKY 211153Z 30003KT 10SM CLR 09/08 A3032 RMK AO2 SLP254 T00940083 10122 20094 53016
KHKY 211053Z 31003KT 10SM CLR 09/08 A3030 RMK AO2 SLP247 T00940083
KHKY 210953Z AUTO 34004KT 10SM CLR 09/08 A3029 RMK AO2 SLP240 T00940083